sensor_id;sensor_type;location;lat;lon;timestamp;pressure;altitude;pressure_sealevel;temperature;humidity
39443;BME280;25147;52.142;9.960;2024-01-07T00:02:08;100711.88;;;-0.67;100.00
39443;BME280;25147;52.142;9.960;2024-01-07T00:04:35;100624.50;;;-1.18;100.00
39443;BME280;25147;52.142;9.960;2024-01-07T00:07:03;100611.41;;;-1.26;100.00
39443;BME280;25147;52.142;9.960;2024-01-07T00:09:33;100720.56;;;-0.65;100.00
39443;BME280;25147;52.142;9.960;2024-01-07T00:12:00;100669.28;;;-1.10;100.00
39443;BME280;25147;52.142;9.960;2024-01-07T00:14:26;100669.69;;;-0.99;100.00
39443;BME280;25147;52.142;9.960;2024-01-07T00:16:54;100525.34;;;-1.89;100.00
39443;BME280;25147;52.142;9.960;2024-01-07T00:19:29;100390.66;;;-2.74;100.00
39443;BME280;25147;52.142;9.960;2024-01-07T00:21:57;100720.38;;;-0.95;100.00
39443;BME280;25147;52.142;9.960;2024-01-07T00:24:33;100263.31;;;-3.47;100.00
39443;BME280;25147;52.142;9.960;2024-01-07T00:27:00;100733.16;;;-0.71;100.00
39443;BME280;25147;52.142;9.960;2024-01-07T00:29:31;100746.03;;;-0.71;100.00
39443;BME280;25147;52.142;9.960;2024-01-07T00:32:04;100744.28;;;-0.72;100.00
39443;BME280;25147;52.142;9.960;2024-01-07T00:34:31;100746.81;;;-0.74;100.00
39443;BME280;25147;52.142;9.960;2024-01-07T00:37:00;100488.63;;;-2.34;100.00
39443;BME280;25147;52.142;9.960;2024-01-07T00:39:27;100435.16;;;-2.72;100.00
39443;BME280;25147;52.142;9.960;2024-01-07T00:41:56;100757.66;;;-0.83;100.00
39443;BME280;25147;52.142;9.960;2024-01-07T00:44:27;100612.25;;;-1.74;100.00
39443;BME280;25147;52.142;9.960;2024-01-07T00:46:53;100773.84;;;-0.85;100.00
39443;BME280;25147;52.142;9.960;2024-01-07T00:49:22;100519.47;;;-2.33;100.00
39443;BME280;25147;52.142;9.960;2024-01-07T00:51:49;100675.81;;;-1.44;100.00
39443;BME280;25147;52.142;9.960;2024-01-07T00:54:15;100539.28;;;-2.29;100.00
39443;BME280;25147;52.142;9.960;2024-01-07T00:56:42;100820.81;;;-0.89;100.00
39443;BME280;25147;52.142;9.960;2024-01-07T00:59:09;100785.56;;;-0.92;100.00
39443;BME280;25147;52.142;9.960;2024-01-07T01:01:36;100815.47;;;-0.94;100.00
39443;BME280;25147;52.142;9.960;2024-01-07T01:04:03;100790.56;;;-0.96;100.00
39443;BME280;25147;52.142;9.960;2024-01-07T01:06:31;100759.88;;;-1.16;100.00
39443;BME280;25147;52.142;9.960;2024-01-07T01:08:58;100699.34;;;-1.56;100.00
39443;BME280;25147;52.142;9.960;2024-01-07T01:11:24;100829.00;;;-0.99;100.00
39443;BME280;25147;52.142;9.960;2024-01-07T01:13:51;100762.09;;;-1.25;100.00
39443;BME280;25147;52.142;9.960;2024-01-07T01:16:18;100797.94;;;-1.06;100.00
39443;BME280;25147;52.142;9.960;2024-01-07T01:18:45;100800.50;;;-1.06;100.00
39443;BME280;25147;52.142;9.960;2024-01-07T01:21:12;100698.66;;;-1.74;100.00
39443;BME280;25147;52.142;9.960;2024-01-07T01:23:40;100804.94;;;-1.02;100.00
39443;BME280;25147;52.142;9.960;2024-01-07T01:26:06;100594.88;;;-2.28;100.00
39443;BME280;25147;52.142;9.960;2024-01-07T01:28:33;100801.97;;;-1.12;100.00
39443;BME280;25147;52.142;9.960;2024-01-07T01:31:00;100815.22;;;-1.02;100.00
39443;BME280;25147;52.142;9.960;2024-01-07T01:33:27;100794.78;;;-1.21;100.00
39443;BME280;25147;52.142;9.960;2024-01-07T01:35:54;100825.50;;;-1.02;100.00
39443;BME280;25147;52.142;9.960;2024-01-07T01:38:20;100810.50;;;-1.13;100.00
39443;BME280;25147;52.142;9.960;2024-01-07T01:40:52;100792.06;;;-1.26;100.00
39443;BME280;25147;52.142;9.960;2024-01-07T01:43:23;100830.50;;;-1.05;100.00
39443;BME280;25147;52.142;9.960;2024-01-07T01:45:50;100828.78;;;-1.06;100.00
39443;BME280;25147;52.142;9.960;2024-01-07T01:48:17;100747.13;;;-1.59;100.00
39443;BME280;25147;52.142;9.960;2024-01-07T01:50:45;100795.97;;;-1.35;100.00
39443;BME280;25147;52.142;9.960;2024-01-07T01:53:13;100565.88;;;-2.70;100.00
39443;BME280;25147;52.142;9.960;2024-01-07T01:55:40;100830.69;;;-1.23;100.00
39443;BME280;25147;52.142;9.960;2024-01-07T01:58:09;100857.03;;;-1.06;100.00
39443;BME280;25147;52.142;9.960;2024-01-07T02:00:36;100850.19;;;-1.05;100.00
39443;BME280;25147;52.142;9.960;2024-01-07T02:03:04;100821.94;;;-1.28;100.00
39443;BME280;25147;52.142;9.960;2024-01-07T02:05:31;100852.31;;;-1.17;100.00
39443;BME280;25147;52.142;9.960;2024-01-07T02:07:58;100852.31;;;-1.17;100.00
39443;BME280;25147;52.142;9.960;2024-01-07T02:10:25;100647.31;;;-2.42;100.00
39443;BME280;25147;52.142;9.960;2024-01-07T02:12:57;100640.94;;;-2.52;100.00
39443;BME280;25147;52.142;9.960;2024-01-07T02:15:25;100871.09;;;-1.18;100.00
39443;BME280;25147;52.142;9.960;2024-01-07T02:17:52;100868.34;;;-1.23;100.00
39443;BME280;25147;52.142;9.960;2024-01-07T02:20:20;100840.19;;;-1.43;100.00
39443;BME280;25147;52.142;9.960;2024-01-07T02:22:46;100864.44;;;-1.36;100.00
39443;BME280;25147;52.142;9.960;2024-01-07T02:25:14;100881.78;;;-1.30;100.00
39443;BME280;25147;52.142;9.960;2024-01-07T02:27:41;100821.25;;;-1.67;100.00
39443;BME280;25147;52.142;9.960;2024-01-07T02:30:09;100738.72;;;-2.22;100.00
39443;BME280;25147;52.142;9.960;2024-01-07T02:32:36;100638.06;;;-2.80;100.00
39443;BME280;25147;52.142;9.960;2024-01-07T02:35:04;100882.28;;;-1.39;100.00
39443;BME280;25147;52.142;9.960;2024-01-07T02:37:30;100890.84;;;-1.38;100.00
39443;BME280;25147;52.142;9.960;2024-01-07T02:39:57;100889.88;;;-1.42;100.00
39443;BME280;25147;52.142;9.960;2024-01-07T02:42:25;100888.97;;;-1.43;100.00
39443;BME280;25147;52.142;9.960;2024-01-07T02:44:52;100586.34;;;-3.33;100.00
39443;BME280;25147;52.142;9.960;2024-01-07T02:47:19;100813.38;;;-2.14;100.00
39443;BME280;25147;52.142;9.960;2024-01-07T02:49:45;100729.81;;;-2.51;100.00
39443;BME280;25147;52.142;9.960;2024-01-07T02:52:12;100766.69;;;-2.28;100.00
39443;BME280;25147;52.142;9.960;2024-01-07T02:54:39;100903.41;;;-1.46;100.00
39443;BME280;25147;52.142;9.960;2024-01-07T02:57:05;100899.06;;;-1.47;100.00
39443;BME280;25147;52.142;9.960;2024-01-07T02:59:34;100811.22;;;-2.05;100.00
39443;BME280;25147;52.142;9.960;2024-01-07T03:02:01;100803.00;;;-2.17;100.00
39443;BME280;25147;52.142;9.960;2024-01-07T03:04:28;100702.31;;;-2.76;100.00
39443;BME280;25147;52.142;9.960;2024-01-07T03:06:55;100911.47;;;-1.58;100.00
39443;BME280;25147;52.142;9.960;2024-01-07T03:09:21;100678.88;;;-3.05;100.00
39443;BME280;25147;52.142;9.960;2024-01-07T03:11:48;100932.91;;;-1.57;100.00
39443;BME280;25147;52.142;9.960;2024-01-07T03:14:15;100883.56;;;-1.92;100.00
39443;BME280;25147;52.142;9.960;2024-01-07T03:16:43;100556.09;;;-3.83;100.00
39443;BME280;25147;52.142;9.960;2024-01-07T03:19:10;100773.88;;;-2.59;100.00
39443;BME280;25147;52.142;9.960;2024-01-07T03:21:37;100833.97;;;-2.33;100.00
39443;BME280;25147;52.142;9.960;2024-01-07T03:24:04;100954.88;;;-1.64;100.00
39443;BME280;25147;52.142;9.960;2024-01-07T03:26:31;100934.28;;;-1.66;100.00
39443;BME280;25147;52.142;9.960;2024-01-07T03:28:58;100948.88;;;-1.65;100.00
39443;BME280;25147;52.142;9.960;2024-01-07T03:31:28;100941.22;;;-1.63;100.00
39443;BME280;25147;52.142;9.960;2024-01-07T03:33:56;100953.19;;;-1.64;100.00
39443;BME280;25147;52.142;9.960;2024-01-07T03:36:23;100941.53;;;-1.76;100.00
39443;BME280;25147;52.142;9.960;2024-01-07T03:38:50;100931.69;;;-1.87;100.00
39443;BME280;25147;52.142;9.960;2024-01-07T03:41:18;100962.56;;;-1.64;100.00
39443;BME280;25147;52.142;9.960;2024-01-07T03:43:46;100923.16;;;-1.86;100.00
39443;BME280;25147;52.142;9.960;2024-01-07T03:46:12;100972.94;;;-1.61;100.00
39443;BME280;25147;52.142;9.960;2024-01-07T03:48:40;100969.53;;;-1.62;100.00
39443;BME280;25147;52.142;9.960;2024-01-07T03:51:08;100815.03;;;-2.56;100.00
39443;BME280;25147;52.142;9.960;2024-01-07T03:53:34;100983.97;;;-1.64;100.00
39443;BME280;25147;52.142;9.960;2024-01-07T03:56:01;100932.13;;;-1.97;100.00
39443;BME280;25147;52.142;9.960;2024-01-07T03:58:28;100979.69;;;-1.65;100.00
39443;BME280;25147;52.142;9.960;2024-01-07T04:00:55;100986.47;;;-1.65;100.00
39443;BME280;25147;52.142;9.960;2024-01-07T04:03:21;100992.50;;;-1.65;100.00
39443;BME280;25147;52.142;9.960;2024-01-07T04:05:48;101011.16;;;-1.69;100.00
39443;BME280;25147;52.142;9.960;2024-01-07T04:08:16;100789.16;;;-2.82;100.00
39443;BME280;25147;52.142;9.960;2024-01-07T04:10:43;100945.69;;;-2.19;100.00
39443;BME280;25147;52.142;9.960;2024-01-07T04:13:10;100990.09;;;-1.81;100.00
39443;BME280;25147;52.142;9.960;2024-01-07T04:15:37;100994.22;;;-1.85;100.00
39443;BME280;25147;52.142;9.960;2024-01-07T04:18:04;100891.00;;;-2.58;100.00
39443;BME280;25147;52.142;9.960;2024-01-07T04:20:33;101000.03;;;-1.89;100.00
39443;BME280;25147;52.142;9.960;2024-01-07T04:23:00;100976.94;;;-2.08;100.00
39443;BME280;25147;52.142;9.960;2024-01-07T04:25:28;100670.91;;;-3.89;100.00
39443;BME280;25147;52.142;9.960;2024-01-07T04:27:55;100959.94;;;-2.26;100.00
39443;BME280;25147;52.142;9.960;2024-01-07T04:30:21;101034.19;;;-1.90;100.00
39443;BME280;25147;52.142;9.960;2024-01-07T04:32:48;101017.16;;;-1.88;100.00
39443;BME280;25147;52.142;9.960;2024-01-07T04:35:15;101007.38;;;-1.96;100.00
39443;BME280;25147;52.142;9.960;2024-01-07T04:37:42;100894.94;;;-2.65;100.00
39443;BME280;25147;52.142;9.960;2024-01-07T04:40:10;101029.19;;;-1.87;100.00
39443;BME280;25147;52.142;9.960;2024-01-07T04:42:38;100972.13;;;-2.20;100.00
39443;BME280;25147;52.142;9.960;2024-01-07T04:45:05;100995.16;;;-2.22;100.00
39443;BME280;25147;52.142;9.960;2024-01-07T04:47:33;100794.56;;;-3.33;100.00
39443;BME280;25147;52.142;9.960;2024-01-07T04:50:00;100948.63;;;-2.49;100.00
39443;BME280;25147;52.142;9.960;2024-01-07T04:52:28;101037.66;;;-1.89;100.00
39443;BME280;25147;52.142;9.960;2024-01-07T04:54:55;100930.41;;;-2.55;100.00
39443;BME280;25147;52.142;9.960;2024-01-07T04:57:25;101038.53;;;-1.89;100.00
39443;BME280;25147;52.142;9.960;2024-01-07T04:59:53;100789.25;;;-3.37;100.00
39443;BME280;25147;52.142;9.960;2024-01-07T05:02:20;101050.31;;;-1.92;100.00
39443;BME280;25147;52.142;9.960;2024-01-07T05:04:46;101057.16;;;-1.93;100.00
39443;BME280;25147;52.142;9.960;2024-01-07T05:07:13;101001.78;;;-2.27;100.00
39443;BME280;25147;52.142;9.960;2024-01-07T05:09:40;101014.94;;;-2.19;100.00
39443;BME280;25147;52.142;9.960;2024-01-07T05:12:07;101065.66;;;-1.94;100.00
39443;BME280;25147;52.142;9.960;2024-01-07T05:14:33;101065.66;;;-1.94;100.00
39443;BME280;25147;52.142;9.960;2024-01-07T05:17:02;100944.66;;;-2.62;100.00
39443;BME280;25147;52.142;9.960;2024-01-07T05:19:29;101066.66;;;-1.90;100.00
39443;BME280;25147;52.142;9.960;2024-01-07T05:21:56;100809.28;;;-3.47;100.00
39443;BME280;25147;52.142;9.960;2024-01-07T05:24:22;101070.94;;;-1.91;100.00
39443;BME280;25147;52.142;9.960;2024-01-07T05:26:49;101079.41;;;-1.92;100.00
39443;BME280;25147;52.142;9.960;2024-01-07T05:29:16;101090.50;;;-1.93;100.00
39443;BME280;25147;52.142;9.960;2024-01-07T05:31:42;101087.94;;;-1.93;100.00
39443;BME280;25147;52.142;9.960;2024-01-07T05:34:10;101090.50;;;-1.93;100.00
39443;BME280;25147;52.142;9.960;2024-01-07T05:36:37;101058.94;;;-2.10;100.00
39443;BME280;25147;52.142;9.960;2024-01-07T05:39:04;101087.13;;;-1.92;100.00
39443;BME280;25147;52.142;9.960;2024-01-07T05:41:32;101048.41;;;-2.16;100.00
39443;BME280;25147;52.142;9.960;2024-01-07T05:43:59;100964.72;;;-2.71;100.00
39443;BME280;25147;52.142;9.960;2024-01-07T05:46:26;101011.72;;;-2.52;100.00
39443;BME280;25147;52.142;9.960;2024-01-07T05:48:53;100786.50;;;-3.78;100.00
39443;BME280;25147;52.142;9.960;2024-01-07T05:51:21;101029.34;;;-2.40;100.00
39443;BME280;25147;52.142;9.960;2024-01-07T05:53:48;101043.25;;;-2.35;100.00
39443;BME280;25147;52.142;9.960;2024-01-07T05:56:15;101062.38;;;-2.29;100.00
39443;BME280;25147;52.142;9.960;2024-01-07T05:58:41;101089.16;;;-2.22;100.00
39443;BME280;25147;52.142;9.960;2024-01-07T06:01:08;101012.81;;;-2.65;100.00
39443;BME280;25147;52.142;9.960;2024-01-07T06:03:35;101128.56;;;-2.02;100.00
39443;BME280;25147;52.142;9.960;2024-01-07T06:06:02;101131.88;;;-2.05;100.00
39443;BME280;25147;52.142;9.960;2024-01-07T06:08:30;101130.06;;;-2.07;100.00
39443;BME280;25147;52.142;9.960;2024-01-07T06:10:57;101035.69;;;-2.70;100.00
39443;BME280;25147;52.142;9.960;2024-01-07T06:13:23;101093.09;;;-2.48;100.00
39443;BME280;25147;52.142;9.960;2024-01-07T06:15:50;101134.53;;;-2.21;100.00
39443;BME280;25147;52.142;9.960;2024-01-07T06:18:17;101153.66;;;-2.14;100.00
39443;BME280;25147;52.142;9.960;2024-01-07T06:20:43;101170.66;;;-2.16;100.00
39443;BME280;25147;52.142;9.960;2024-01-07T06:23:10;101169.69;;;-2.18;100.00
39443;BME280;25147;52.142;9.960;2024-01-07T06:25:38;101075.34;;;-2.79;100.00
39443;BME280;25147;52.142;9.960;2024-01-07T06:28:05;101071.06;;;-2.80;100.00
39443;BME280;25147;52.142;9.960;2024-01-07T06:30:32;101173.75;;;-2.24;100.00
39443;BME280;25147;52.142;9.960;2024-01-07T06:32:59;101175.34;;;-2.26;100.00
39443;BME280;25147;52.142;9.960;2024-01-07T06:35:25;101188.97;;;-2.27;100.00
39443;BME280;25147;52.142;9.960;2024-01-07T06:37:52;101194.84;;;-2.29;100.00
39443;BME280;25147;52.142;9.960;2024-01-07T06:40:19;100872.06;;;-4.24;100.00
39443;BME280;25147;52.142;9.960;2024-01-07T06:42:47;101090.78;;;-2.96;100.00
39443;BME280;25147;52.142;9.960;2024-01-07T06:45:14;101059.44;;;-3.43;100.00
39443;BME280;25147;52.142;9.960;2024-01-07T06:47:41;101001.91;;;-3.67;100.00
39443;BME280;25147;52.142;9.960;2024-01-07T06:50:09;101222.94;;;-2.49;100.00
39443;BME280;25147;52.142;9.960;2024-01-07T06:52:36;101097.94;;;-3.41;100.00
39443;BME280;25147;52.142;9.960;2024-01-07T06:55:03;101226.16;;;-2.53;100.00
39443;BME280;25147;52.142;9.960;2024-01-07T06:57:30;101159.00;;;-2.98;100.00
39443;BME280;25147;52.142;9.960;2024-01-07T06:59:58;101237.88;;;-2.58;100.00
39443;BME280;25147;52.142;9.960;2024-01-07T07:02:24;101239.56;;;-2.58;100.00
39443;BME280;25147;52.142;9.960;2024-01-07T07:04:51;101253.16;;;-2.59;100.00
39443;BME280;25147;52.142;9.960;2024-01-07T07:07:18;101245.41;;;-2.61;100.00
39443;BME280;25147;52.142;9.960;2024-01-07T07:09:44;101045.75;;;-3.94;100.00
39443;BME280;25147;52.142;9.960;2024-01-07T07:12:12;101254.03;;;-2.59;100.00
39443;BME280;25147;52.142;9.960;2024-01-07T07:14:39;101261.69;;;-2.60;100.00
39443;BME280;25147;52.142;9.960;2024-01-07T07:17:07;101162.00;;;-3.23;100.00
39443;BME280;25147;52.142;9.960;2024-01-07T07:19:33;101300.81;;;-2.63;100.00
39443;BME280;25147;52.142;9.960;2024-01-07T07:22:00;101014.75;;;-4.16;100.00
39443;BME280;25147;52.142;9.960;2024-01-07T07:24:29;101281.16;;;-2.64;100.00
39443;BME280;25147;52.142;9.960;2024-01-07T07:26:56;101207.22;;;-3.07;100.00
39443;BME280;25147;52.142;9.960;2024-01-07T07:29:23;101319.59;;;-2.64;100.00
39443;BME280;25147;52.142;9.960;2024-01-07T07:31:49;101298.13;;;-2.66;100.00
39443;BME280;25147;52.142;9.960;2024-01-07T07:34:17;101298.13;;;-2.66;100.00
39443;BME280;25147;52.142;9.960;2024-01-07T07:36:45;101317.72;;;-2.83;100.00
39443;BME280;25147;52.142;9.960;2024-01-07T07:39:11;101034.22;;;-4.18;100.00
39443;BME280;25147;52.142;9.960;2024-01-07T07:41:39;101304.13;;;-2.66;100.00
39443;BME280;25147;52.142;9.960;2024-01-07T07:44:06;101206.31;;;-3.24;100.00
39443;BME280;25147;52.142;9.960;2024-01-07T07:46:32;101269.03;;;-2.83;100.00
39443;BME280;25147;52.142;9.960;2024-01-07T07:48:59;101006.66;;;-4.40;100.00
39443;BME280;25147;52.142;9.960;2024-01-07T07:51:30;101314.59;;;-2.61;100.00
39443;BME280;25147;52.142;9.960;2024-01-07T07:53:57;101253.38;;;-3.06;100.00
39443;BME280;25147;52.142;9.960;2024-01-07T07:56:23;101170.56;;;-3.55;100.00
39443;BME280;25147;52.142;9.960;2024-01-07T07:58:50;101322.59;;;-2.55;100.00
39443;BME280;25147;52.142;9.960;2024-01-07T08:01:17;101330.38;;;-2.53;100.00
39443;BME280;25147;52.142;9.960;2024-01-07T08:03:44;101236.91;;;-3.11;100.00
39443;BME280;25147;52.142;9.960;2024-01-07T08:06:11;101339.91;;;-2.51;100.00
39443;BME280;25147;52.142;9.960;2024-01-07T08:08:39;101244.81;;;-3.06;100.00
39443;BME280;25147;52.142;9.960;2024-01-07T08:11:06;101286.19;;;-2.82;100.00
39443;BME280;25147;52.142;9.960;2024-01-07T08:13:35;101352.25;;;-2.44;100.00
39443;BME280;25147;52.142;9.960;2024-01-07T08:16:04;101152.31;;;-3.61;100.00
39443;BME280;25147;52.142;9.960;2024-01-07T08:18:30;101285.56;;;-2.78;100.00
39443;BME280;25147;52.142;9.960;2024-01-07T08:20:57;101309.41;;;-2.79;100.00
39443;BME280;25147;52.142;9.960;2024-01-07T08:23:24;101374.28;;;-2.31;100.00
39443;BME280;25147;52.142;9.960;2024-01-07T08:25:52;101370.09;;;-2.29;100.00
39443;BME280;25147;52.142;9.960;2024-01-07T08:28:19;101291.00;;;-2.88;100.00
39443;BME280;25147;52.142;9.960;2024-01-07T08:30:47;101382.28;;;-2.25;100.00
39443;BME280;25147;52.142;9.960;2024-01-07T08:33:14;101201.44;;;-3.36;100.00
39443;BME280;25147;52.142;9.960;2024-01-07T08:35:41;101390.94;;;-2.23;100.00
39443;BME280;25147;52.142;9.960;2024-01-07T08:38:08;101262.19;;;-3.00;100.00
39443;BME280;25147;52.142;9.960;2024-01-07T08:40:37;101391.81;;;-2.22;100.00
39443;BME280;25147;52.142;9.960;2024-01-07T08:43:05;101387.50;;;-2.23;100.00
39443;BME280;25147;52.142;9.960;2024-01-07T08:45:32;101378.34;;;-2.34;100.00
39443;BME280;25147;52.142;9.960;2024-01-07T08:47:58;101221.53;;;-3.27;100.00
39443;BME280;25147;52.142;9.960;2024-01-07T08:50:25;100985.84;;;-4.63;100.00
39443;BME280;25147;52.142;9.960;2024-01-07T08:52:52;101422.44;;;-2.25;100.00
39443;BME280;25147;52.142;9.960;2024-01-07T08:55:19;101342.09;;;-2.58;100.00
39443;BME280;25147;52.142;9.960;2024-01-07T08:57:45;101404.56;;;-2.24;100.00
39443;BME280;25147;52.142;9.960;2024-01-07T09:00:16;101419.06;;;-2.24;100.00
39443;BME280;25147;52.142;9.960;2024-01-07T09:02:43;101386.03;;;-2.34;100.00
39443;BME280;25147;52.142;9.960;2024-01-07T09:05:10;101402.88;;;-2.23;100.00
39443;BME280;25147;52.142;9.960;2024-01-07T09:07:37;101419.22;;;-2.21;100.00
39443;BME280;25147;52.142;9.960;2024-01-07T09:10:04;101307.34;;;-2.86;100.00
39443;BME280;25147;52.142;9.960;2024-01-07T09:12:36;101379.63;;;-2.43;100.00
39443;BME280;25147;52.142;9.960;2024-01-07T09:15:03;101427.16;;;-2.16;100.00
39443;BME280;25147;52.142;9.960;2024-01-07T09:17:35;101426.41;;;-2.14;100.00
39443;BME280;25147;52.142;9.960;2024-01-07T09:20:03;101424.75;;;-2.13;100.00
39443;BME280;25147;52.142;9.960;2024-01-07T09:22:32;101356.44;;;-2.62;100.00
39443;BME280;25147;52.142;9.960;2024-01-07T09:24:59;101319.66;;;-2.79;100.00
39443;BME280;25147;52.142;9.960;2024-01-07T09:27:26;101332.63;;;-2.76;100.00
39443;BME280;25147;52.142;9.960;2024-01-07T09:29:52;101403.03;;;-2.36;100.00
39443;BME280;25147;52.142;9.960;2024-01-07T09:32:19;101448.81;;;-2.11;100.00
39443;BME280;25147;52.142;9.960;2024-01-07T09:34:47;101320.88;;;-3.05;100.00
39443;BME280;25147;52.142;9.960;2024-01-07T09:37:14;101452.06;;;-2.14;100.00
39443;BME280;25147;52.142;9.960;2024-01-07T09:39:41;101450.25;;;-2.16;100.00
39443;BME280;25147;52.142;9.960;2024-01-07T09:42:12;101457.84;;;-2.18;100.00
39443;BME280;25147;52.142;9.960;2024-01-07T09:44:39;101397.00;;;-2.86;100.00
39443;BME280;25147;52.142;9.960;2024-01-07T09:47:10;101494.66;;;-2.17;100.00
39443;BME280;25147;52.142;9.960;2024-01-07T09:49:37;101359.78;;;-2.79;100.00
39443;BME280;25147;52.142;9.960;2024-01-07T09:52:07;101457.38;;;-2.11;100.00
39443;BME280;25147;52.142;9.960;2024-01-07T09:54:35;101208.94;;;-3.55;100.00
39443;BME280;25147;52.142;9.960;2024-01-07T09:57:03;101460.34;;;-2.03;100.00
39443;BME280;25147;52.142;9.960;2024-01-07T09:59:32;101152.31;;;-3.78;100.00
39443;BME280;25147;52.142;9.960;2024-01-07T10:01:59;101461.31;;;-2.01;100.00
39443;BME280;25147;52.142;9.960;2024-01-07T10:04:26;101465.63;;;-2.00;100.00
39443;BME280;25147;52.142;9.960;2024-01-07T10:06:53;101474.06;;;-2.19;100.00
39443;BME280;25147;52.142;9.960;2024-01-07T10:09:23;101463.13;;;-1.98;100.00
39443;BME280;25147;52.142;9.960;2024-01-07T10:11:52;101377.16;;;-2.57;100.00
39443;BME280;25147;52.142;9.960;2024-01-07T10:14:18;101431.75;;;-2.27;100.00
39443;BME280;25147;52.142;9.960;2024-01-07T10:16:47;101390.94;;;-2.39;100.00
39443;BME280;25147;52.142;9.960;2024-01-07T10:19:19;101333.91;;;-2.68;100.00
39443;BME280;25147;52.142;9.960;2024-01-07T10:21:46;101417.53;;;-2.20;100.00
39443;BME280;25147;52.142;9.960;2024-01-07T10:24:13;101472.03;;;-1.92;100.00
39443;BME280;25147;52.142;9.960;2024-01-07T10:26:41;101367.09;;;-2.54;100.00
39443;BME280;25147;52.142;9.960;2024-01-07T10:29:08;101470.19;;;-1.94;100.00
39443;BME280;25147;52.142;9.960;2024-01-07T10:31:37;101362.66;;;-2.57;100.00
39443;BME280;25147;52.142;9.960;2024-01-07T10:34:07;101475.16;;;-1.97;100.00
39443;BME280;25147;52.142;9.960;2024-01-07T10:36:33;101409.63;;;-2.42;100.00
39443;BME280;25147;52.142;9.960;2024-01-07T10:39:00;101464.88;;;-1.97;100.00
39443;BME280;25147;52.142;9.960;2024-01-07T10:41:27;101476.94;;;-1.96;100.00
39443;BME280;25147;52.142;9.960;2024-01-07T10:43:57;101347.38;;;-2.72;100.00
39443;BME280;25147;52.142;9.960;2024-01-07T10:46:26;101478.53;;;-1.98;100.00
39443;BME280;25147;52.142;9.960;2024-01-07T10:48:59;101476.84;;;-1.98;100.00
39443;BME280;25147;52.142;9.960;2024-01-07T10:51:27;101436.38;;;-2.20;100.00
39443;BME280;25147;52.142;9.960;2024-01-07T10:53:56;101420.94;;;-2.38;100.00
39443;BME280;25147;52.142;9.960;2024-01-07T10:56:23;101430.53;;;-2.17;100.00
39443;BME280;25147;52.142;9.960;2024-01-07T10:58:52;101297.81;;;-3.21;100.00
39443;BME280;25147;52.142;9.960;2024-01-07T11:01:20;101478.13;;;-1.90;100.00
39443;BME280;25147;52.142;9.960;2024-01-07T11:03:54;101466.03;;;-1.92;100.00
39443;BME280;25147;52.142;9.960;2024-01-07T11:06:27;101379.63;;;-2.43;100.00
39443;BME280;25147;52.142;9.960;2024-01-07T11:08:57;101457.44;;;-1.93;100.00
39443;BME280;25147;52.142;9.960;2024-01-07T11:11:27;101477.78;;;-1.79;100.00
39443;BME280;25147;52.142;9.960;2024-01-07T11:13:59;101472.50;;;-1.83;100.00
39443;BME280;25147;52.142;9.960;2024-01-07T11:16:44;101478.81;;;-1.76;100.00
39443;BME280;25147;52.142;9.960;2024-01-07T11:19:13;101422.34;;;-2.10;100.00
39443;BME280;25147;52.142;9.960;2024-01-07T11:21:40;101459.50;;;-1.86;100.00
39443;BME280;25147;52.142;9.960;2024-01-07T11:24:06;101394.69;;;-2.16;100.00
39443;BME280;25147;52.142;9.960;2024-01-07T11:26:34;101388.59;;;-2.18;100.00
39443;BME280;25147;52.142;9.960;2024-01-07T11:29:00;101290.59;;;-2.79;100.00
39443;BME280;25147;52.142;9.960;2024-01-07T11:31:44;101386.28;;;-2.13;100.00
39443;BME280;25147;52.142;9.960;2024-01-07T11:37:12;101470.78;;;-1.66;100.00
39443;BME280;25147;52.142;9.960;2024-01-07T11:39:41;101420.38;;;-1.98;100.00
39443;BME280;25147;52.142;9.960;2024-01-07T11:42:08;101465.56;;;-1.67;100.00
39443;BME280;25147;52.142;9.960;2024-01-07T11:44:35;101477.78;;;-1.79;100.00
39443;BME280;25147;52.142;9.960;2024-01-07T11:47:04;101447.50;;;-1.87;100.00
39443;BME280;25147;52.142;9.960;2024-01-07T11:49:34;101302.13;;;-2.71;100.00
39443;BME280;25147;52.142;9.960;2024-01-07T11:52:01;101416.88;;;-2.00;100.00
39443;BME280;25147;52.142;9.960;2024-01-07T11:54:28;101422.31;;;-1.94;100.00
39443;BME280;25147;52.142;9.960;2024-01-07T11:56:55;101359.19;;;-2.25;100.00
39443;BME280;25147;52.142;9.960;2024-01-07T11:59:22;101465.97;;;-1.59;100.00
39443;BME280;25147;52.142;9.960;2024-01-07T12:01:49;101469.47;;;-1.57;100.00
39443;BME280;25147;52.142;9.960;2024-01-07T12:04:17;101149.13;;;-3.41;100.00
39443;BME280;25147;52.142;9.960;2024-01-07T12:06:44;101458.81;;;-1.65;100.00
39443;BME280;25147;52.142;9.960;2024-01-07T12:09:12;101213.13;;;-3.25;100.00
39443;BME280;25147;52.142;9.960;2024-01-07T12:11:39;101123.22;;;-3.64;100.00
39443;BME280;25147;52.142;9.960;2024-01-07T12:14:07;101229.84;;;-2.98;100.00
39443;BME280;25147;52.142;9.960;2024-01-07T12:16:34;101200.81;;;-3.15;100.00
39443;BME280;25147;52.142;9.960;2024-01-07T12:19:00;101467.66;;;-1.60;100.00
39443;BME280;25147;52.142;9.960;2024-01-07T12:21:28;101470.22;;;-1.60;100.00
39443;BME280;25147;52.142;9.960;2024-01-07T12:23:55;101472.78;;;-1.60;100.00
39443;BME280;25147;52.142;9.960;2024-01-07T12:26:25;101381.53;;;-2.22;100.00
39443;BME280;25147;52.142;9.960;2024-01-07T12:28:53;101489.88;;;-1.60;100.00
39443;BME280;25147;52.142;9.960;2024-01-07T12:31:21;101472.78;;;-1.60;100.00
39443;BME280;25147;52.142;9.960;2024-01-07T12:33:47;101434.66;;;-1.87;100.00
39443;BME280;25147;52.142;9.960;2024-01-07T12:36:14;101432.91;;;-2.04;100.00
39443;BME280;25147;52.142;9.960;2024-01-07T12:38:43;101485.44;;;-1.63;100.00
39443;BME280;25147;52.142;9.960;2024-01-07T12:41:09;101493.00;;;-1.66;100.00
39443;BME280;25147;52.142;9.960;2024-01-07T12:43:36;101487.88;;;-1.66;100.00
39443;BME280;25147;52.142;9.960;2024-01-07T12:46:03;101487.06;;;-1.65;100.00